Williamsport Regional Airport Williamsport US
ICAO: KIPT
IATA: IPT
Category: Medium
Scheduled Services: Yes

Elevation: 529 ft
TransAlt. 18000 ft.

Airport Communications:
ASOS:125.225
NEW YORK CLNC DEL:124.9
NEW YORK CNTR:124.9
CTAF:119.1
GND:121.9
RDO:122.2
TWR:119.1
UNICOM:122.95

KIPT Zoom In..

If you have problems with the map follow the link
https://www.worldairports.se/pages/airport.php?
ICAO=KIPT

Runways:

(A) RW 09 length 6824 ft width 150 ft
---- / hdg 87

(B) RW 12 length 4273 ft width 150 ft
---- / hdg 116

(C) RW 27 length 6824 ft width 150 ft
ILS 110.10 / hdg 267

(D) RW 30 length 4273 ft width 150 ft
---- / hdg 296

Location; KIPT
Day. 14 / Time. 17.54 Zulu
* Altimeter: 29.26
* Temperature: 04° c. 39.2°f.
* Wind from: 270° Speed 05 kn.
Dewpoint: 03° c.
Visibility: 2 Statute Miles.
Clouds: Scattered 1900 ft.
Clouds: Broken 2600 ft.
Clouds: Overcast 3400 ft.
Conditions: Rain.Conditions: Mist.

KIPT 141754Z 27005KT 2SM RA BR SCT019 BKN026 OVC034 04/03 A2926 RMK AO2 SLP912 P0019 60021 T00390033 10044 20022 56050


Wind From 270°
Speed 05 kn.

 
 
jpsmedia worldairports.se 2019   terms of use